Saint-Hubert, Belgium
Current Conditions -  °F | °C
As of 7:25 AM on Monday 24 Nov 2014 (Local Time) from EBFS Reporting Station
Broken Clouds Broken Clouds  
Wind Chill: 40°   Ceiling: 2700
Heat Index: 45°   Visibility: 6mi
Dew Point: 43°   Wind: 8mph
Humidity: 93%   Direction: 10°N
Pressure: 30.21"   Gusts: NA
Location:  50.03°N, 5.37°E
Report Text: EBFS 240625Z 01007KT 9999 FEW005 SCT009 BKN027 07/06 Q1023 GRN WHT TEMPO GRN
Loading
Personal Weather Stations






























Interactive Weather Map New forecast layout! Learn more

10-Day Weather Forecast

Advertisements
Track Severe Weather on mobile